sensor_id;sensor_type;location;lat;lon;timestamp;pressure;altitude;pressure_sealevel;temperature;humidity
21706;BME280;11014;53.076;18.208;2023-04-24T00:01:44;100314.16;;;17.60;69.06
21706;BME280;11014;53.076;18.208;2023-04-24T00:04:12;100304.13;;;17.60;68.88
21706;BME280;11014;53.076;18.208;2023-04-24T00:06:45;100301.94;;;17.62;69.20
21706;BME280;11014;53.076;18.208;2023-04-24T00:09:17;100298.16;;;17.58;68.98
21706;BME280;11014;53.076;18.208;2023-04-24T00:11:46;100297.66;;;17.56;69.05
21706;BME280;11014;53.076;18.208;2023-04-24T00:14:15;100293.59;;;17.54;69.41
21706;BME280;11014;53.076;18.208;2023-04-24T00:16:44;100301.44;;;17.55;69.33
21706;BME280;11014;53.076;18.208;2023-04-24T00:19:13;100297.91;;;17.55;69.21
21706;BME280;11014;53.076;18.208;2023-04-24T00:21:42;100292.50;;;17.55;69.37
21706;BME280;11014;53.076;18.208;2023-04-24T00:24:10;100291.91;;;17.58;69.53
21706;BME280;11014;53.076;18.208;2023-04-24T00:26:39;100284.59;;;17.58;69.30
21706;BME280;11014;53.076;18.208;2023-04-24T00:29:08;100290.03;;;17.58;69.31
21706;BME280;11014;53.076;18.208;2023-04-24T00:31:38;100284.59;;;17.58;69.00
21706;BME280;11014;53.076;18.208;2023-04-24T00:34:07;100278.66;;;17.56;69.04
21706;BME280;11014;53.076;18.208;2023-04-24T00:37:02;100281.00;;;17.63;69.28
21706;BME280;11014;53.076;18.208;2023-04-24T00:39:30;100274.81;;;17.52;69.21
21706;BME280;11014;53.076;18.208;2023-04-24T00:41:59;100272.16;;;17.47;69.20
21706;BME280;11014;53.076;18.208;2023-04-24T00:44:29;100274.34;;;17.45;69.33
21706;BME280;11014;53.076;18.208;2023-04-24T00:46:59;100265.66;;;17.43;69.36
21706;BME280;11014;53.076;18.208;2023-04-24T00:49:28;100262.94;;;17.43;69.45
21706;BME280;11014;53.076;18.208;2023-04-24T00:51:57;100262.16;;;17.43;69.65
21706;BME280;11014;53.076;18.208;2023-04-24T00:54:27;100266.25;;;17.40;69.36
21706;BME280;11014;53.076;18.208;2023-04-24T00:56:56;100260.28;;;17.38;69.58
21706;BME280;11014;53.076;18.208;2023-04-24T00:59:24;100272.47;;;17.41;69.63
21706;BME280;11014;53.076;18.208;2023-04-24T01:01:54;100275.75;;;17.43;69.43
21706;BME280;11014;53.076;18.208;2023-04-24T01:04:23;100267.28;;;17.44;69.33
21706;BME280;11014;53.076;18.208;2023-04-24T01:06:54;100270.53;;;17.46;69.22
21706;BME280;11014;53.076;18.208;2023-04-24T01:09:24;100262.38;;;17.46;69.46
21706;BME280;11014;53.076;18.208;2023-04-24T01:11:54;100265.66;;;17.43;69.49
21706;BME280;11014;53.076;18.208;2023-04-24T01:14:23;100265.44;;;17.40;69.34
21706;BME280;11014;53.076;18.208;2023-04-24T01:16:52;100258.69;;;17.37;69.40
21706;BME280;11014;53.076;18.208;2023-04-24T01:19:21;100257.03;;;17.36;69.45
21706;BME280;11014;53.076;18.208;2023-04-24T01:21:51;100248.91;;;17.36;69.61
21706;BME280;11014;53.076;18.208;2023-04-24T01:24:21;100252.69;;;17.35;69.53
21706;BME280;11014;53.076;18.208;2023-04-24T01:26:50;100254.63;;;17.35;69.40
21706;BME280;11014;53.076;18.208;2023-04-24T01:29:19;100249.19;;;17.35;69.39
21706;BME280;11014;53.076;18.208;2023-04-24T01:31:48;100248.91;;;17.36;69.19
21706;BME280;11014;53.076;18.208;2023-04-24T01:34:18;100248.91;;;17.36;69.09
21706;BME280;11014;53.076;18.208;2023-04-24T01:36:47;100243.47;;;17.36;69.08
21706;BME280;11014;53.076;18.208;2023-04-24T01:39:16;100247.28;;;17.35;69.34
21706;BME280;11014;53.076;18.208;2023-04-24T01:41:45;100245.66;;;17.34;69.17
21706;BME280;11014;53.076;18.208;2023-04-24T01:44:15;100252.19;;;17.33;69.41
21706;BME280;11014;53.076;18.208;2023-04-24T01:46:44;100251.09;;;17.34;69.05
21706;BME280;11014;53.076;18.208;2023-04-24T01:49:13;100248.38;;;17.34;69.28
21706;BME280;11014;53.076;18.208;2023-04-24T01:51:42;100253.81;;;17.34;69.43
21706;BME280;11014;53.076;18.208;2023-04-24T01:54:10;100246.75;;;17.33;69.20
21706;BME280;11014;53.076;18.208;2023-04-24T01:56:43;100246.22;;;17.31;69.29
21706;BME280;11014;53.076;18.208;2023-04-24T01:59:12;100240.28;;;17.29;69.01
21706;BME280;11014;53.076;18.208;2023-04-24T02:01:41;100244.63;;;17.25;68.98
21706;BME280;11014;53.076;18.208;2023-04-24T02:04:09;100240.28;;;17.24;69.10
21706;BME280;11014;53.076;18.208;2023-04-24T02:06:38;100240.28;;;17.24;69.06
21706;BME280;11014;53.076;18.208;2023-04-24T02:09:07;100245.72;;;17.24;69.32
21706;BME280;11014;53.076;18.208;2023-04-24T02:11:36;100240.03;;;17.26;69.22
21706;BME280;11014;53.076;18.208;2023-04-24T02:14:05;100244.38;;;17.27;68.89
21706;BME280;11014;53.076;18.208;2023-04-24T02:16:34;100243.56;;;17.26;69.04
21706;BME280;11014;53.076;18.208;2023-04-24T02:19:04;100230.03;;;17.21;69.15
21706;BME280;11014;53.076;18.208;2023-04-24T02:21:32;100234.41;;;17.17;69.24
21706;BME280;11014;53.076;18.208;2023-04-24T02:24:02;100231.16;;;17.15;69.21
21706;BME280;11014;53.076;18.208;2023-04-24T02:26:30;100228.44;;;17.15;69.05
21706;BME280;11014;53.076;18.208;2023-04-24T02:29:01;100224.44;;;17.07;69.47
21706;BME280;11014;53.076;18.208;2023-04-24T02:31:30;100215.44;;;17.12;69.45
21706;BME280;11014;53.076;18.208;2023-04-24T02:33:58;100215.47;;;17.07;69.09
21706;BME280;11014;53.076;18.208;2023-04-24T02:36:27;100216.56;;;17.06;69.43
21706;BME280;11014;53.076;18.208;2023-04-24T02:38:56;100212.78;;;17.07;69.45
21706;BME280;11014;53.076;18.208;2023-04-24T02:41:24;100215.47;;;17.07;69.12
21706;BME280;11014;53.076;18.208;2023-04-24T02:43:53;100212.78;;;17.07;69.40
21706;BME280;11014;53.076;18.208;2023-04-24T02:46:22;100210.06;;;17.07;69.19
21706;BME280;11014;53.076;18.208;2023-04-24T02:48:50;100205.16;;;17.09;69.04
21706;BME280;11014;53.076;18.208;2023-04-24T02:51:21;100210.56;;;17.09;69.42
21706;BME280;11014;53.076;18.208;2023-04-24T02:53:49;100205.16;;;17.09;69.15
21706;BME280;11014;53.076;18.208;2023-04-24T02:56:18;100207.81;;;17.14;69.17
21706;BME280;11014;53.076;18.208;2023-04-24T02:58:47;100206.44;;;17.16;69.12
21706;BME280;11014;53.076;18.208;2023-04-24T03:01:18;100202.88;;;17.21;68.95
21706;BME280;11014;53.076;18.208;2023-04-24T03:03:46;100208.84;;;17.23;68.63
21706;BME280;11014;53.076;18.208;2023-04-24T03:06:16;100207.72;;;17.24;68.31
21706;BME280;11014;53.076;18.208;2023-04-24T03:08:44;100212.88;;;17.26;68.31
21706;BME280;11014;53.076;18.208;2023-04-24T03:11:14;100205.56;;;17.26;68.63
21706;BME280;11014;53.076;18.208;2023-04-24T03:13:43;100203.38;;;17.28;68.27
21706;BME280;11014;53.076;18.208;2023-04-24T03:16:12;100199.56;;;17.29;68.26
21706;BME280;11014;53.076;18.208;2023-04-24T03:18:40;100205.50;;;17.31;67.94
21706;BME280;11014;53.076;18.208;2023-04-24T03:21:11;100206.59;;;17.30;67.97
21706;BME280;11014;53.076;18.208;2023-04-24T03:23:42;100205.00;;;17.29;68.20
21706;BME280;11014;53.076;18.208;2023-04-24T03:26:11;100209.59;;;17.29;68.18
21706;BME280;11014;53.076;18.208;2023-04-24T03:28:50;100213.66;;;17.31;68.08
21706;BME280;11014;53.076;18.208;2023-04-24T03:31:19;100206.59;;;17.30;67.85
21706;BME280;11014;53.076;18.208;2023-04-24T03:33:49;100213.41;;;17.28;68.26
21706;BME280;11014;53.076;18.208;2023-04-24T03:36:18;100211.56;;;17.23;68.51
21706;BME280;11014;53.076;18.208;2023-04-24T03:38:47;100221.91;;;17.21;68.48
21706;BME280;11014;53.076;18.208;2023-04-24T03:41:29;100214.28;;;17.23;68.29
21706;BME280;11014;53.076;18.208;2023-04-24T03:44:25;100218.03;;;17.27;68.29
21706;BME280;11014;53.076;18.208;2023-04-24T03:46:54;100220.22;;;17.25;68.55
21706;BME280;11014;53.076;18.208;2023-04-24T03:49:24;100225.63;;;17.25;68.43
21706;BME280;11014;53.076;18.208;2023-04-24T03:51:56;100220.22;;;17.25;68.46
21706;BME280;11014;53.076;18.208;2023-04-24T03:54:29;100225.16;;;17.18;68.71
21706;BME280;11014;53.076;18.208;2023-04-24T03:56:58;100211.88;;;17.16;68.72
21706;BME280;11014;53.076;18.208;2023-04-24T03:59:28;100210.53;;;17.14;69.05
21706;BME280;11014;53.076;18.208;2023-04-24T04:02:14;100217.53;;;17.20;69.00
21706;BME280;11014;53.076;18.208;2023-04-24T04:04:43;100214.31;;;17.18;69.20
21706;BME280;11014;53.076;18.208;2023-04-24T04:07:12;100211.03;;;17.16;68.99
21706;BME280;11014;53.076;18.208;2023-04-24T04:10:07;100202.84;;;17.26;69.54
21706;BME280;11014;53.076;18.208;2023-04-24T04:12:42;100195.84;;;17.20;69.25
21706;BME280;11014;53.076;18.208;2023-04-24T04:15:10;100195.84;;;17.20;69.33
21706;BME280;11014;53.076;18.208;2023-04-24T04:17:39;100199.88;;;17.23;69.86
21706;BME280;11014;53.076;18.208;2023-04-24T04:20:08;100198.50;;;17.25;70.00
21706;BME280;11014;53.076;18.208;2023-04-24T04:22:41;100198.22;;;17.27;69.98
21706;BME280;11014;53.076;18.208;2023-04-24T04:25:17;100200.59;;;17.33;69.93
21706;BME280;11014;53.076;18.208;2023-04-24T04:31:40;100197.78;;;17.43;69.47
21706;BME280;11014;53.076;18.208;2023-04-24T04:34:19;100199.56;;;17.29;70.32
21706;BME280;11014;53.076;18.208;2023-04-24T04:36:48;100199.88;;;17.23;71.14
21706;BME280;11014;53.076;18.208;2023-04-24T04:39:39;100197.69;;;17.25;71.31
21706;BME280;11014;53.076;18.208;2023-04-24T04:42:13;100195.28;;;17.23;71.29
21706;BME280;11014;53.076;18.208;2023-04-24T04:44:43;100196.88;;;17.24;71.64
21706;BME280;11014;53.076;18.208;2023-04-24T04:47:26;100194.69;;;17.26;71.37
21706;BME280;11014;53.076;18.208;2023-04-24T04:49:58;100191.13;;;17.31;71.43
21706;BME280;11014;53.076;18.208;2023-04-24T04:52:29;100187.03;;;17.33;71.24
21706;BME280;11014;53.076;18.208;2023-04-24T04:55:18;100184.31;;;17.33;71.54
21706;BME280;11014;53.076;18.208;2023-04-24T04:58:09;100189.19;;;17.36;71.61
21706;BME280;11014;53.076;18.208;2023-04-24T05:00:38;100181.53;;;17.38;71.40
21706;BME280;11014;53.076;18.208;2023-04-24T05:03:16;100180.47;;;17.39;71.44
21706;BME280;11014;53.076;18.208;2023-04-24T05:05:54;100175.56;;;17.41;71.61
21706;BME280;11014;53.076;18.208;2023-04-24T05:08:25;100176.88;;;17.44;71.78
21706;BME280;11014;53.076;18.208;2023-04-24T05:10:56;100176.03;;;17.53;71.55
21706;BME280;11014;53.076;18.208;2023-04-24T05:13:27;100175.97;;;17.58;71.35
21706;BME280;11014;53.076;18.208;2023-04-24T05:16:18;100169.38;;;17.64;71.27
21706;BME280;11014;53.076;18.208;2023-04-24T05:18:48;100163.38;;;17.67;70.88
21706;BME280;11014;53.076;18.208;2023-04-24T05:21:21;100174.19;;;17.72;70.65
21706;BME280;11014;53.076;18.208;2023-04-24T05:23:52;100167.31;;;17.80;70.61
21706;BME280;11014;53.076;18.208;2023-04-24T05:26:37;100164.78;;;17.89;70.39
21706;BME280;11014;53.076;18.208;2023-04-24T05:29:08;100164.19;;;17.92;70.46
21706;BME280;11014;53.076;18.208;2023-04-24T05:31:36;100163.03;;;17.98;70.25
21706;BME280;11014;53.076;18.208;2023-04-24T05:34:06;100167.28;;;18.04;70.10
21706;BME280;11014;53.076;18.208;2023-04-24T05:36:35;100161.78;;;18.09;69.77
21706;BME280;11014;53.076;18.208;2023-04-24T05:39:04;100162.59;;;18.09;69.52
21706;BME280;11014;53.076;18.208;2023-04-24T05:41:35;100158.50;;;18.12;69.00
21706;BME280;11014;53.076;18.208;2023-04-24T05:44:03;100157.34;;;18.18;69.30
21706;BME280;11014;53.076;18.208;2023-04-24T05:46:32;100168.69;;;18.25;68.91
21706;BME280;11014;53.076;18.208;2023-04-24T05:49:01;100164.19;;;18.34;68.67
21706;BME280;11014;53.076;18.208;2023-04-24T05:51:32;100166.75;;;18.49;68.59
21706;BME280;11014;53.076;18.208;2023-04-24T05:54:01;100163.88;;;18.59;67.96
21706;BME280;11014;53.076;18.208;2023-04-24T05:56:31;100165.94;;;18.67;67.67
21706;BME280;11014;53.076;18.208;2023-04-24T05:59:03;100155.69;;;18.78;67.29
21706;BME280;11014;53.076;18.208;2023-04-24T06:01:32;100151.50;;;18.85;67.47
21706;BME280;11014;53.076;18.208;2023-04-24T06:04:10;100158.91;;;18.99;67.17
21706;BME280;11014;53.076;18.208;2023-04-24T06:06:38;100166.91;;;19.09;67.28
21706;BME280;11014;53.076;18.208;2023-04-24T06:09:08;100168.66;;;19.18;67.09
21706;BME280;11014;53.076;18.208;2023-04-24T06:11:36;100164.44;;;19.26;66.54
21706;BME280;11014;53.076;18.208;2023-04-24T06:14:06;100157.72;;;19.37;65.62
21706;BME280;11014;53.076;18.208;2023-04-24T06:16:57;100164.91;;;19.46;64.70
21706;BME280;11014;53.076;18.208;2023-04-24T06:19:37;100158.56;;;19.51;64.51
21706;BME280;11014;53.076;18.208;2023-04-24T06:22:05;100156.28;;;19.58;64.10
21706;BME280;11014;53.076;18.208;2023-04-24T06:24:37;100157.78;;;19.64;63.90
21706;BME280;11014;53.076;18.208;2023-04-24T06:27:05;100164.75;;;19.70;63.69
21706;BME280;11014;53.076;18.208;2023-04-24T06:29:36;100157.81;;;19.78;63.29
21706;BME280;11014;53.076;18.208;2023-04-24T06:32:05;100160.59;;;19.86;63.45
21706;BME280;11014;53.076;18.208;2023-04-24T06:34:33;100150.72;;;19.90;62.55
21706;BME280;11014;53.076;18.208;2023-04-24T06:37:02;100151.94;;;19.98;62.11
21706;BME280;11014;53.076;18.208;2023-04-24T06:39:31;100145.47;;;20.07;62.13
21706;BME280;11014;53.076;18.208;2023-04-24T06:41:59;100141.22;;;20.15;61.54
21706;BME280;11014;53.076;18.208;2023-04-24T06:44:28;100136.97;;;20.23;61.35
21706;BME280;11014;53.076;18.208;2023-04-24T06:46:57;100146.19;;;20.27;61.31
21706;BME280;11014;53.076;18.208;2023-04-24T06:49:28;100142.84;;;20.30;60.98
21706;BME280;11014;53.076;18.208;2023-04-24T06:51:56;100138.38;;;20.34;61.33
21706;BME280;11014;53.076;18.208;2023-04-24T06:54:25;100136.16;;;20.36;61.18
21706;BME280;11014;53.076;18.208;2023-04-24T06:56:53;100142.63;;;20.40;60.50
21706;BME280;11014;53.076;18.208;2023-04-24T06:59:23;100137.16;;;20.40;60.12
21706;BME280;11014;53.076;18.208;2023-04-24T07:01:52;100133.22;;;20.46;60.23
21706;BME280;11014;53.076;18.208;2023-04-24T07:04:22;100134.19;;;20.50;60.41
21706;BME280;11014;53.076;18.208;2023-04-24T07:06:53;100132.97;;;20.56;59.84
21706;BME280;11014;53.076;18.208;2023-04-24T07:09:29;100136.72;;;20.60;59.90
21706;BME280;11014;53.076;18.208;2023-04-24T07:11:57;100143.16;;;20.64;59.03
21706;BME280;11014;53.076;18.208;2023-04-24T07:14:26;100137.91;;;20.67;58.71
21706;BME280;11014;53.076;18.208;2023-04-24T07:16:55;100136.84;;;20.77;59.04
21706;BME280;11014;53.076;18.208;2023-04-24T07:19:25;100129.34;;;20.83;58.15
21706;BME280;11014;53.076;18.208;2023-04-24T07:21:54;100125.69;;;20.87;58.56
21706;BME280;11014;53.076;18.208;2023-04-24T07:24:24;100120.47;;;20.99;58.71
21706;BME280;11014;53.076;18.208;2023-04-24T07:26:53;100126.22;;;21.11;57.89
21706;BME280;11014;53.076;18.208;2023-04-24T07:29:22;100125.94;;;21.21;56.90
21706;BME280;11014;53.076;18.208;2023-04-24T07:31:50;100128.53;;;21.26;55.77
21706;BME280;11014;53.076;18.208;2023-04-24T07:34:19;100121.81;;;21.33;55.03
21706;BME280;11014;53.076;18.208;2023-04-24T07:36:48;100116.84;;;21.35;54.03
21706;BME280;11014;53.076;18.208;2023-04-24T07:39:17;100124.41;;;21.38;54.75
21706;BME280;11014;53.076;18.208;2023-04-24T07:41:46;100122.06;;;21.45;54.20
21706;BME280;11014;53.076;18.208;2023-04-24T07:44:15;100108.72;;;21.52;54.38
21706;BME280;11014;53.076;18.208;2023-04-24T07:46:43;100116.16;;;21.60;54.49
21706;BME280;11014;53.076;18.208;2023-04-24T07:49:12;100111.03;;;21.67;54.44
21706;BME280;11014;53.076;18.208;2023-04-24T07:51:42;100124.59;;;21.72;53.58
21706;BME280;11014;53.076;18.208;2023-04-24T07:54:10;100121.19;;;21.75;53.40
21706;BME280;11014;53.076;18.208;2023-04-24T07:56:40;100115.59;;;21.80;53.40
21706;BME280;11014;53.076;18.208;2023-04-24T07:59:11;100115.16;;;21.87;52.99
21706;BME280;11014;53.076;18.208;2023-04-24T08:01:39;100117.59;;;21.88;52.30
21706;BME280;11014;53.076;18.208;2023-04-24T08:04:08;100117.59;;;21.88;52.27
21706;BME280;11014;53.076;18.208;2023-04-24T08:06:36;100117.69;;;21.83;51.62
21706;BME280;11014;53.076;18.208;2023-04-24T08:09:05;100122.03;;;21.84;51.83
21706;BME280;11014;53.076;18.208;2023-04-24T08:11:34;100115.75;;;21.83;51.50
21706;BME280;11014;53.076;18.208;2023-04-24T08:14:03;100118.81;;;21.82;50.58
21706;BME280;11014;53.076;18.208;2023-04-24T08:16:32;100114.63;;;21.76;50.01
21706;BME280;11014;53.076;18.208;2023-04-24T08:19:01;100118.59;;;21.70;50.03
21706;BME280;11014;53.076;18.208;2023-04-24T08:21:30;100122.34;;;21.74;50.17
21706;BME280;11014;53.076;18.208;2023-04-24T08:23:59;100128.28;;;21.76;49.47
21706;BME280;11014;53.076;18.208;2023-04-24T08:26:27;100118.19;;;21.85;49.69
21706;BME280;11014;53.076;18.208;2023-04-24T08:28:55;100118.56;;;21.92;49.06
21706;BME280;11014;53.076;18.208;2023-04-24T08:31:24;100119.38;;;22.01;49.87
21706;BME280;11014;53.076;18.208;2023-04-24T08:33:54;100115.22;;;22.12;49.20
21706;BME280;11014;53.076;18.208;2023-04-24T08:36:22;100108.81;;;22.25;49.40
21706;BME280;11014;53.076;18.208;2023-04-24T08:39:03;100116.84;;;22.30;48.26
21706;BME280;11014;53.076;18.208;2023-04-24T08:41:34;100111.56;;;22.34;47.87
21706;BME280;11014;53.076;18.208;2023-04-24T08:44:03;100121.53;;;22.38;48.84
21706;BME280;11014;53.076;18.208;2023-04-24T08:46:32;100113.03;;;22.40;48.42
21706;BME280;11014;53.076;18.208;2023-04-24T08:49:01;100111.41;;;22.48;48.58
21706;BME280;11014;53.076;18.208;2023-04-24T08:51:31;100118.00;;;22.47;47.77
21706;BME280;11014;53.076;18.208;2023-04-24T08:54:00;100117.69;;;22.39;47.87
21706;BME280;11014;53.076;18.208;2023-04-24T08:56:29;100116.22;;;22.42;48.64
21706;BME280;11014;53.076;18.208;2023-04-24T08:59:00;100117.34;;;22.32;47.37
21706;BME280;11014;53.076;18.208;2023-04-24T09:01:32;100123.47;;;22.29;47.68
21706;BME280;11014;53.076;18.208;2023-04-24T09:04:03;100125.69;;;22.27;47.72
21706;BME280;11014;53.076;18.208;2023-04-24T09:06:32;100118.63;;;22.26;48.13
21706;BME280;11014;53.076;18.208;2023-04-24T09:09:04;100113.31;;;22.30;48.78
21706;BME280;11014;53.076;18.208;2023-04-24T09:11:33;100126.69;;;22.31;48.71
21706;BME280;11014;53.076;18.208;2023-04-24T09:14:03;100126.69;;;22.31;48.36
21706;BME280;11014;53.076;18.208;2023-04-24T09:16:32;100126.50;;;22.28;48.79
21706;BME280;11014;53.076;18.208;2023-04-24T09:19:04;100123.47;;;22.29;48.78
21706;BME280;11014;53.076;18.208;2023-04-24T09:21:34;100118.00;;;22.29;49.16
21706;BME280;11014;53.076;18.208;2023-04-24T09:24:06;100126.84;;;22.26;49.41
21706;BME280;11014;53.076;18.208;2023-04-24T09:26:36;100119.28;;;22.23;49.33
21706;BME280;11014;53.076;18.208;2023-04-24T09:29:05;100115.56;;;22.19;49.88
21706;BME280;11014;53.076;18.208;2023-04-24T09:31:33;100114.63;;;22.24;50.71
21706;BME280;11014;53.076;18.208;2023-04-24T09:34:05;100108.66;;;22.30;50.83
21706;BME280;11014;53.076;18.208;2023-04-24T09:36:42;100112.22;;;22.39;51.19
21706;BME280;11014;53.076;18.208;2023-04-24T09:39:13;100113.16;;;22.61;50.22
21706;BME280;11014;53.076;18.208;2023-04-24T09:41:47;100099.69;;;22.73;49.29
21706;BME280;11014;53.076;18.208;2023-04-24T09:44:19;100091.59;;;22.85;49.26
21706;BME280;11014;53.076;18.208;2023-04-24T09:46:55;100090.78;;;23.01;49.27
21706;BME280;11014;53.076;18.208;2023-04-24T09:49:29;100088.47;;;23.21;47.79
21706;BME280;11014;53.076;18.208;2023-04-24T09:52:05;100088.44;;;23.38;46.72
21706;BME280;11014;53.076;18.208;2023-04-24T09:54:35;100087.25;;;23.47;46.82
21706;BME280;11014;53.076;18.208;2023-04-24T09:57:06;100087.03;;;23.61;45.72
21706;BME280;11014;53.076;18.208;2023-04-24T09:59:42;100083.91;;;23.80;46.45
21706;BME280;11014;53.076;18.208;2023-04-24T10:02:19;100073.34;;;23.90;44.58
21706;BME280;11014;53.076;18.208;2023-04-24T10:04:55;100075.38;;;24.02;44.83
21706;BME280;11014;53.076;18.208;2023-04-24T10:07:28;100064.84;;;24.12;44.88
21706;BME280;11014;53.076;18.208;2023-04-24T10:09:57;100066.78;;;24.12;44.14
21706;BME280;11014;53.076;18.208;2023-04-24T10:12:26;100062.88;;;24.13;42.13
21706;BME280;11014;53.076;18.208;2023-04-24T10:14:56;100061.47;;;24.07;43.37
21706;BME280;11014;53.076;18.208;2023-04-24T10:17:25;100057.09;;;24.06;42.68
21706;BME280;11014;53.076;18.208;2023-04-24T10:19:56;100059.22;;;24.09;43.26
21706;BME280;11014;53.076;18.208;2023-04-24T10:22:25;100064.03;;;24.12;42.90
21706;BME280;11014;53.076;18.208;2023-04-24T10:24:55;100073.00;;;24.21;42.97
21706;BME280;11014;53.076;18.208;2023-04-24T10:27:26;100076.50;;;24.30;43.31
21706;BME280;11014;53.076;18.208;2023-04-24T10:29:56;100080.09;;;24.43;42.15
21706;BME280;11014;53.076;18.208;2023-04-24T10:32:24;100079.72;;;24.53;42.58
21706;BME280;11014;53.076;18.208;2023-04-24T10:34:54;100084.91;;;24.66;43.23
21706;BME280;11014;53.076;18.208;2023-04-24T10:37:25;100079.75;;;24.86;43.69
21706;BME280;11014;53.076;18.208;2023-04-24T10:39:55;100084.38;;;25.06;42.89
21706;BME280;11014;53.076;18.208;2023-04-24T10:42:27;100084.66;;;25.25;43.76
21706;BME280;11014;53.076;18.208;2023-04-24T10:44:56;100089.31;;;25.69;43.17
21706;BME280;11014;53.076;18.208;2023-04-24T10:47:26;100082.34;;;25.60;42.58
21706;BME280;11014;53.076;18.208;2023-04-24T10:49:58;100086.69;;;25.49;41.55
21706;BME280;11014;53.076;18.208;2023-04-24T10:52:44;100087.84;;;25.60;43.01
21706;BME280;11014;53.076;18.208;2023-04-24T10:55:14;100086.91;;;25.68;42.42
21706;BME280;11014;53.076;18.208;2023-04-24T10:58:02;100080.59;;;25.91;41.61
21706;BME280;11014;53.076;18.208;2023-04-24T11:00:32;100090.34;;;25.77;39.97
21706;BME280;11014;53.076;18.208;2023-04-24T11:03:04;100097.06;;;25.43;39.59
21706;BME280;11014;53.076;18.208;2023-04-24T11:06:04;100096.00;;;25.35;39.68
21706;BME280;11014;53.076;18.208;2023-04-24T11:08:43;100094.06;;;25.24;39.65
21706;BME280;11014;53.076;18.208;2023-04-24T11:11:14;100093.78;;;25.17;39.66
21706;BME280;11014;53.076;18.208;2023-04-24T11:14:04;100097.88;;;24.99;39.37
21706;BME280;11014;53.076;18.208;2023-04-24T11:16:35;100102.13;;;25.08;40.00
21706;BME280;11014;53.076;18.208;2023-04-24T11:21:42;100106.06;;;24.87;40.68
21706;BME280;11014;53.076;18.208;2023-04-24T11:24:40;100105.00;;;24.79;39.73
21706;BME280;11014;53.076;18.208;2023-04-24T11:27:20;100097.16;;;24.69;40.58
21706;BME280;11014;53.076;18.208;2023-04-24T11:29:49;100098.69;;;24.78;40.86
21706;BME280;11014;53.076;18.208;2023-04-24T11:35:19;100102.88;;;25.29;41.49
21706;BME280;11014;53.076;18.208;2023-04-24T11:37:59;100093.78;;;25.17;40.54
21706;BME280;11014;53.076;18.208;2023-04-24T11:40:51;100100.31;;;25.12;39.83
21706;BME280;11014;53.076;18.208;2023-04-24T11:43:25;100104.13;;;25.20;40.03
21706;BME280;11014;53.076;18.208;2023-04-24T11:45:53;100098.63;;;25.20;39.70
21706;BME280;11014;53.076;18.208;2023-04-24T11:48:22;100102.09;;;25.29;40.21
21706;BME280;11014;53.076;18.208;2023-04-24T11:50:51;100105.53;;;25.38;39.88
21706;BME280;11014;53.076;18.208;2023-04-24T11:53:20;100101.31;;;25.41;40.35
21706;BME280;11014;53.076;18.208;2023-04-24T11:55:49;100101.09;;;25.46;39.99
21706;BME280;11014;53.076;18.208;2023-04-24T11:58:20;100098.66;;;25.44;40.42
21706;BME280;11014;53.076;18.208;2023-04-24T12:00:56;100099.28;;;25.50;39.70
21706;BME280;11014;53.076;18.208;2023-04-24T12:03:27;100095.72;;;25.49;40.98
21706;BME280;11014;53.076;18.208;2023-04-24T12:06:06;100080.81;;;25.74;39.94
21706;BME280;11014;53.076;18.208;2023-04-24T12:08:36;100082.34;;;25.84;39.65
21706;BME280;11014;53.076;18.208;2023-04-24T12:11:06;100081.75;;;25.66;39.46
21706;BME280;11014;53.076;18.208;2023-04-24T12:13:36;100083.13;;;25.72;39.79
21706;BME280;11014;53.076;18.208;2023-04-24T12:16:04;100074.06;;;25.84;39.69
21706;BME280;11014;53.076;18.208;2023-04-24T12:18:34;100076.22;;;25.90;39.00
21706;BME280;11014;53.076;18.208;2023-04-24T12:21:22;100065.59;;;25.89;38.51
21706;BME280;11014;53.076;18.208;2023-04-24T12:23:54;100064.56;;;25.81;38.79
21706;BME280;11014;53.076;18.208;2023-04-24T12:26:22;100061.78;;;25.93;39.33
21706;BME280;11014;53.076;18.208;2023-04-24T12:28:51;100062.69;;;26.10;38.47
21706;BME280;11014;53.076;18.208;2023-04-24T12:31:21;100053.19;;;26.19;38.25
21706;BME280;11014;53.076;18.208;2023-04-24T12:33:49;100050.16;;;26.36;37.79
21706;BME280;11014;53.076;18.208;2023-04-24T12:36:21;100057.50;;;26.60;37.75
21706;BME280;11014;53.076;18.208;2023-04-24T12:38:52;100038.69;;;27.05;36.90
21706;BME280;11014;53.076;18.208;2023-04-24T12:41:21;100045.31;;;27.98;35.54
21706;BME280;11014;53.076;18.208;2023-04-24T12:43:53;100050.81;;;28.68;33.96
21706;BME280;11014;53.076;18.208;2023-04-24T12:46:22;100051.72;;;29.40;32.44
21706;BME280;11014;53.076;18.208;2023-04-24T12:48:51;100036.38;;;29.43;31.00
21706;BME280;11014;53.076;18.208;2023-04-24T12:51:46;100034.91;;;29.26;30.51
21706;BME280;11014;53.076;18.208;2023-04-24T12:54:14;100032.31;;;28.72;31.31
21706;BME280;11014;53.076;18.208;2023-04-24T12:56:43;100026.34;;;28.32;31.22
21706;BME280;11014;53.076;18.208;2023-04-24T12:59:12;100027.50;;;27.96;31.50
21706;BME280;11014;53.076;18.208;2023-04-24T13:01:41;100023.84;;;27.57;31.67
21706;BME280;11014;53.076;18.208;2023-04-24T13:04:09;100024.19;;;27.24;32.59
21706;BME280;11014;53.076;18.208;2023-04-24T13:06:38;100025.00;;;26.93;33.72
21706;BME280;11014;53.076;18.208;2023-04-24T13:09:07;100021.72;;;26.76;33.44
21706;BME280;11014;53.076;18.208;2023-04-24T13:11:35;100018.41;;;26.27;34.14